WetterOnline ( http://www.wetteronline.de )

Wetter aktuell Kiel

Aktuelles Wetter: Kiel/Holtenau (27m)

6-stündlich | Neueste Meldungen
Ortszeit Temperatur Wetter
So, 25.02. 19:00 -2.3° C bewölkt
So, 25.02. 13:00 -3.0° C leichter Schneefall
So, 25.02. 7:00 -3.3° C leichter Schneefall
So, 25.02. 1:00 -1.8° C bedeckt
Sa, 24.02. 19:00 -0.8° C bewölkt
Sa, 24.02. 13:00 0.7° C wolkig
Sa, 24.02. 7:00 0.3° C bedeckt
Sa, 24.02. 1:00 -0.5° C bedeckt
Ortszeit Temperatur Wetter
So, 25.02. 20:30 -2.6° C bewölkt
So, 25.02. 20:10 -2.7° C bewölkt
So, 25.02. 20:00 -2.6° C bewölkt
So, 25.02. 19:50 -2.6° C bewölkt
So, 25.02. 19:40 -2.5° C bewölkt
So, 25.02. 19:30 -2.5° C bewölkt
So, 25.02. 19:00 -2.3° C bewölkt
So, 25.02. 18:30 -2.4° C bewölkt
So, 25.02. 18:00 -2.5° C bewölkt
So, 25.02. 17:30 -2.6° C bewölkt
Ortszeit Relative Feuchte Sichtweite
So, 25.02. 19:00 63% 45 km
So, 25.02. 13:00 77% 16 km
So, 25.02. 7:00 93% 2.9 km
So, 25.02. 1:00 70% 55 km
Sa, 24.02. 19:00 66% 55 km
Sa, 24.02. 13:00 58% 22 km
Sa, 24.02. 7:00 80% 35 km
Sa, 24.02. 1:00 81% 14 km
Ortszeit Relative Feuchte Sichtweite
So, 25.02. 20:30 61% 55 km
So, 25.02. 20:10 60% -
So, 25.02. 20:00 63% 60 km
So, 25.02. 19:50 63% -
So, 25.02. 19:40 64% -
So, 25.02. 19:30 63% 45 km
So, 25.02. 19:00 63% 45 km
So, 25.02. 18:30 66% 50 km
So, 25.02. 18:00 66% 45 km
So, 25.02. 17:30 68% 40 km
Ortszeit Niederschlagsmenge Niederschlagsart
So, 25.02. 19:00 0.1 l/m2 in 12 Std. Schnee
So, 25.02. 13:00 0.1 l/m2 in 6 Std. Schnee
So, 25.02. 7:00 0.9 l/m2 in 12 Std. Schnee
So, 25.02. 1:00 0.1 l/m2 in 6 Std. Schnee
Sa, 24.02. 19:00 0.1 l/m2 in 12 Std. Schnee
Sa, 24.02. 13:00 0.0 l/m2 in 6 Std. -
Sa, 24.02. 7:00 0.1 l/m2 in 12 Std. Schnee, Regen
Sa, 24.02. 1:00 0.0 l/m2 in 6 Std. -
Ortszeit Niederschlagsmenge Niederschlagsart
So, 25.02. 20:30 0.0 l/m2 in 1 Std. -
So, 25.02. 20:10 keine Meldung -
So, 25.02. 20:00 0.0 l/m2 in 1 Std. -
So, 25.02. 19:50 keine Meldung -
So, 25.02. 19:40 keine Meldung -
So, 25.02. 19:30 0.0 l/m2 in 1 Std. -
So, 25.02. 19:00 0.0 l/m2 in 1 Std. Schnee
So, 25.02. 18:30 0.0 l/m2 in 1 Std. -
So, 25.02. 18:00 0.0 l/m2 in 1 Std. -
So, 25.02. 17:30 0.0 l/m2 in 1 Std. -
Ortszeit Stärke Spitze Richtung
km/h Bft. km/h Grad Sektor
So, 25.02. 19:00 25 4 43 60° NO
So, 25.02. 13:00 22 4 36 40° NO
So, 25.02. 7:00 6 1 15 280° W
So, 25.02. 1:00 6 1 39 150° SO
Sa, 24.02. 19:00 18 3 47 90° O
Sa, 24.02. 13:00 26 4 48 90° O
Sa, 24.02. 7:00 26 4 33 80° O
Sa, 24.02. 1:00 4 1 18 120° SO
Ortszeit Stärke Spitze Richtung
km/h Bft. km/h Grad Sektor
So, 25.02. 20:30 22 4 40 70° O
So, 25.02. 20:10 25 4 - 70° O
So, 25.02. 20:00 29 5 40 70° O
So, 25.02. 19:50 29 5 - 70° O
So, 25.02. 19:40 28 4 - 70° O
So, 25.02. 19:30 26 4 41 60° NO
So, 25.02. 19:00 25 4 40 60° NO
So, 25.02. 18:30 26 4 41 60° NO
So, 25.02. 18:00 24 4 37 60° NO
So, 25.02. 17:30 22 4 31 60° NO
Ortszeit Untergrenze Bedeckung Gattung
total tief tief mittel hoch
So, 25.02. 19:00 930 m 7/8 7/8 - - -
So, 25.02. 13:00 540 m 8/8 8/8 - - -
So, 25.02. 7:00 360 m 8/8 7/8 - - -
So, 25.02. 1:00 870 m 8/8 8/8 - - -
Sa, 24.02. 19:00 1380 m 7/8 7/8 - - -
Sa, 24.02. 13:00 1080 m 6/8 7/8 - - -
Sa, 24.02. 7:00 510 m 8/8 8/8 - - -
Sa, 24.02. 1:00 540 m 8/8 8/8 - - -
Ortszeit Bedeckungsgrad in Achtel und Wolkenuntergrenze
So, 25.02. 20:30 7(1230m) 7(1500m)
So, 25.02. 20:10 5(1170m) 6(1380m) 7(1500m)
So, 25.02. 20:00 1(1050m) 3(1260m) 7(1500m)
So, 25.02. 19:50 1(1050m) 3(1260m) 7(1500m)
So, 25.02. 19:40 1(810m) 6(1260m) 7(1500m)
So, 25.02. 19:30 1(840m) 6(1290m) 7(1500m)
So, 25.02. 19:00 3(930m) 6(1200m) 7(1440m)
So, 25.02. 18:30 4(990m) 7(1290m) 7(1380m)
So, 25.02. 18:00 7(990m) 7(1200m) 7(1350m)
So, 25.02. 17:30 3(810m) 7(1110m)
Ortszeit Luftdruck NN (hPa) Tendenz (hPa in 3 Std.)
So, 25.02. 19:00 1035 + 0,3
So, 25.02. 13:00 1035 - 0,6
So, 25.02. 7:00 1035 - 0,4
So, 25.02. 1:00 1035 + 0,3
Sa, 24.02. 19:00 1035 + 0,4
Sa, 24.02. 13:00 1034 + 0,6
Sa, 24.02. 7:00 1032 + 1,2
Sa, 24.02. 1:00 1030 + 0,5
Ortszeit Luftdruck NN (hPa) Tendenz (hPa in 3 Std.)
So, 25.02. 20:30 1035 + 0,4
So, 25.02. 20:10 1035 keine Meldung
So, 25.02. 20:00 1035 + 0,5
So, 25.02. 19:50 1035 keine Meldung
So, 25.02. 19:40 1035 keine Meldung
So, 25.02. 19:30 1035 + 0,4
So, 25.02. 19:00 1035 + 0,3
So, 25.02. 18:30 1035 + 0,3
So, 25.02. 18:00 1034 - 0,1
So, 25.02. 17:30 1034 - 0,3
Ortszeit Schneehöhe (cm)
So, 25.02. 19:00 2
So, 25.02. 13:00 1
So, 25.02. 7:00 1
So, 25.02. 1:00 0
Sa, 24.02. 19:00 0
Sa, 24.02. 13:00 0
Sa, 24.02. 7:00 0
Sa, 24.02. 1:00 0
Ortszeit Schneehöhe (cm)
So, 25.02. 20:30 2
So, 25.02. 20:10 2
So, 25.02. 20:00 2
So, 25.02. 19:50 2
So, 25.02. 19:40 2
So, 25.02. 19:30 2
So, 25.02. 19:00 2
So, 25.02. 18:30 2
So, 25.02. 18:00 2
So, 25.02. 17:30 2
Link zu dieser Seite / Seite empfehlen

Das Wetter in ...